createdAt,value
2018-06-02T00:01:16.869Z,68.77
2018-06-02T00:03:44.360Z,88.37
2018-06-02T00:06:11.871Z,78.90
2018-06-02T00:08:39.346Z,71.00
2018-06-02T00:11:07.446Z,67.77
2018-06-02T00:13:47.144Z,76.57
2018-06-02T00:16:14.641Z,104.90
2018-06-02T00:18:42.130Z,87.97
2018-06-02T00:21:09.619Z,88.80
2018-06-02T00:23:40.265Z,92.07
2018-06-02T00:26:08.692Z,58.27
2018-06-02T00:28:36.187Z,79.17
2018-06-02T00:31:03.729Z,96.13
2018-06-02T00:33:31.444Z,58.20
2018-06-02T00:35:59.262Z,79.10
2018-06-02T00:38:27.065Z,86.77
2018-06-02T00:40:54.564Z,126.57
2018-06-02T00:43:22.063Z,89.50
2018-06-02T00:45:49.585Z,126.80
2018-06-02T00:48:17.087Z,96.20
2018-06-02T00:50:44.575Z,119.30
2018-06-02T00:53:12.081Z,105.17
2018-06-02T00:55:39.993Z,125.30
2018-06-02T00:58:08.317Z,90.50
2018-06-02T01:00:37.874Z,238.80
2018-06-02T01:03:08.734Z,113.83
2018-06-02T01:05:36.225Z,158.87
2018-06-02T01:08:05.494Z,195.77
2018-06-02T01:10:32.984Z,150.13
2018-06-02T01:13:00.588Z,207.10
2018-06-02T01:15:28.835Z,139.63
2018-06-02T01:17:56.361Z,81.17
2018-06-02T01:20:23.862Z,91.60
2018-06-02T01:22:52.086Z,111.73
2018-06-02T01:25:19.589Z,109.13
2018-06-02T01:27:47.112Z,132.77
2018-06-02T01:30:14.599Z,75.43
2018-06-02T01:32:42.600Z,154.03
2018-06-02T01:35:10.079Z,151.20
2018-06-02T01:37:37.549Z,67.90
2018-06-02T01:40:05.359Z,183.63
2018-06-02T01:42:32.975Z,185.50
2018-06-02T01:45:00.484Z,163.60
2018-06-02T01:47:27.983Z,77.83
2018-06-02T01:49:55.493Z,126.50
2018-06-02T01:52:22.980Z,111.03
2018-06-02T01:54:50.507Z,168.30
2018-06-02T01:57:18.212Z,196.33
2018-06-02T01:59:46.483Z,239.87
2018-06-02T02:02:14.843Z,260.97
2018-06-02T02:04:42.459Z,167.50
2018-06-02T02:07:11.133Z,166.60
2018-06-02T02:09:39.393Z,183.53
2018-06-02T02:12:06.873Z,185.40
2018-06-02T02:14:34.440Z,147.03
2018-06-02T02:17:01.964Z,73.37
2018-06-02T02:19:30.319Z,213.07
2018-06-02T02:21:58.805Z,211.50
2018-06-02T02:24:26.370Z,195.33
2018-06-02T02:26:53.992Z,257.93
2018-06-02T02:29:21.535Z,347.33
2018-06-02T02:31:49.816Z,110.73
2018-06-02T02:34:17.550Z,152.17
2018-06-02T02:36:45.151Z,104.63
2018-06-02T02:39:16.021Z,112.13
2018-06-02T02:41:44.377Z,135.37
2018-06-02T02:44:12.014Z,59.80
2018-06-02T02:46:39.654Z,141.60
2018-06-02T02:49:07.143Z,79.07
2018-06-02T02:51:34.657Z,149.47
2018-06-02T02:54:02.343Z,88.20
2018-06-02T02:56:44.201Z,140.30
2018-06-02T02:59:12.456Z,103.87
2018-06-02T03:01:40.256Z,186.60
2018-06-02T03:04:07.755Z,134.20
2018-06-02T03:06:35.265Z,140.40
2018-06-02T03:09:03.509Z,213.90
2018-06-02T03:11:31.005Z,123.23
2018-06-02T03:13:59.250Z,144.73
2018-06-02T03:16:26.844Z,210.60
2018-06-02T03:18:54.345Z,145.07
2018-06-02T03:21:22.641Z,131.37
2018-06-02T03:23:50.877Z,199.70
2018-06-02T03:26:18.375Z,166.37
2018-06-02T03:28:45.895Z,183.67
2018-06-02T03:31:22.561Z,195.47
2018-06-02T03:33:50.083Z,168.30
2018-06-02T03:36:19.891Z,223.17
2018-06-02T03:38:47.604Z,136.90
2018-06-02T03:41:16.180Z,123.13
2018-06-02T03:43:43.840Z,170.33
2018-06-02T03:46:13.030Z,198.33
2018-06-02T03:48:40.548Z,149.60
2018-06-02T03:51:08.020Z,143.43
2018-06-02T03:53:36.305Z,112.00
2018-06-02T03:56:04.564Z,134.70
2018-06-02T03:58:32.085Z,120.20
2018-06-02T04:00:59.565Z,221.90
2018-06-02T04:03:27.958Z,179.07
2018-06-02T04:05:55.476Z,228.10
2018-06-02T04:08:22.954Z,100.57
2018-06-02T04:10:51.388Z,119.53
2018-06-02T04:13:18.881Z,213.87
2018-06-02T04:15:46.434Z,205.33
2018-06-02T04:18:14.660Z,162.80
2018-06-02T04:20:42.955Z,217.73
2018-06-02T04:23:11.427Z,161.50
2018-06-02T04:25:39.881Z,220.93
2018-06-02T04:28:07.363Z,156.90
2018-06-02T04:30:35.649Z,129.17
2018-06-02T04:33:03.882Z,170.90
2018-06-02T04:35:31.816Z,144.20
2018-06-02T04:38:09.275Z,163.10
2018-06-02T04:40:37.595Z,172.87
2018-06-02T04:43:05.091Z,169.97
2018-06-02T04:45:32.609Z,170.20
2018-06-02T04:48:00.271Z,153.53
2018-06-02T04:50:27.847Z,108.17
2018-06-02T04:52:55.338Z,187.40
2018-06-02T04:55:22.877Z,99.50
2018-06-02T04:57:50.373Z,86.57
2018-06-02T05:00:17.873Z,49.50
2018-06-02T05:02:45.408Z,69.23
2018-06-02T05:05:12.882Z,60.57
2018-06-02T05:07:40.392Z,79.70
2018-06-02T05:10:07.899Z,65.03
2018-06-02T05:12:35.391Z,72.33
2018-06-02T05:15:02.914Z,84.53
2018-06-02T05:17:31.161Z,79.90
2018-06-02T05:19:58.665Z,74.87
2018-06-02T05:22:26.173Z,80.83
2018-06-02T05:24:54.425Z,88.67
2018-06-02T05:27:21.941Z,93.03
2018-06-02T05:29:49.433Z,77.97
2018-06-02T05:32:16.943Z,81.70
2018-06-02T05:34:44.448Z,62.57
2018-06-02T05:37:11.953Z,72.37
2018-06-02T05:39:39.432Z,83.80
2018-06-02T05:42:06.933Z,80.83
2018-06-02T05:44:34.439Z,73.83
2018-06-02T05:47:01.959Z,77.80
2018-06-02T05:49:30.320Z,86.63
2018-06-02T05:51:57.810Z,70.00
2018-06-02T05:54:26.226Z,52.77
2018-06-02T05:56:53.724Z,80.63
2018-06-02T05:59:22.017Z,71.10
2018-06-02T06:01:49.886Z,52.33
2018-06-02T06:04:17.748Z,43.53
2018-06-02T06:06:45.998Z,47.80
2018-06-02T06:09:13.514Z,49.47
2018-06-02T06:11:41.004Z,58.13
2018-06-02T06:14:08.535Z,44.80
2018-06-02T06:16:36.039Z,50.60
2018-06-02T06:19:03.535Z,37.23
2018-06-02T06:21:31.029Z,41.40
2018-06-02T06:23:58.586Z,34.27
2018-06-02T06:26:26.849Z,24.43
2018-06-02T06:28:54.358Z,22.93
2018-06-02T06:31:21.834Z,26.87
2018-06-02T06:33:51.025Z,25.50
2018-06-02T06:36:18.586Z,20.53
2018-06-02T06:38:46.843Z,25.37
2018-06-02T06:41:14.352Z,18.87
2018-06-02T06:43:41.840Z,19.13
2018-06-02T06:46:09.812Z,14.27
2018-06-02T06:48:37.395Z,15.90
2018-06-02T06:51:05.671Z,17.03
2018-06-02T06:53:33.337Z,14.73
2018-06-02T06:56:01.613Z,12.73
2018-06-02T06:58:29.877Z,11.77
2018-06-02T07:00:57.397Z,11.27
2018-06-02T07:03:24.889Z,10.97
2018-06-02T07:05:52.407Z,11.40
2018-06-02T07:08:19.951Z,11.40
2018-06-02T07:10:47.458Z,10.57
2018-06-02T07:13:14.931Z,11.23
2018-06-02T07:15:42.449Z,10.37
2018-06-02T07:18:09.941Z,9.70
2018-06-02T07:20:37.427Z,8.88
2018-06-02T07:23:05.692Z,8.68
2018-06-02T07:25:33.934Z,9.13
2018-06-02T07:28:01.421Z,8.70
2018-06-02T07:30:29.745Z,9.95
2018-06-02T07:32:57.236Z,9.23
2018-06-02T07:35:24.717Z,10.63
2018-06-02T07:37:53.027Z,10.25
2018-06-02T07:40:20.498Z,8.82
2018-06-02T07:42:48.005Z,11.20
2018-06-02T07:45:15.501Z,9.00
2018-06-02T07:47:43.027Z,8.70
2018-06-02T07:50:10.561Z,9.02
2018-06-02T07:52:38.488Z,9.38
2018-06-02T07:55:06.030Z,9.38
2018-06-02T07:57:33.541Z,8.90
2018-06-02T08:00:01.017Z,9.23
2018-06-02T08:02:29.316Z,8.80
2018-06-02T08:04:56.838Z,8.35
2018-06-02T08:07:24.356Z,8.73
2018-06-02T08:09:51.862Z,9.23
2018-06-02T08:12:19.393Z,8.75
2018-06-02T08:14:46.888Z,9.18
2018-06-02T08:17:14.386Z,9.50
2018-06-02T08:19:41.876Z,10.35
2018-06-02T08:22:09.369Z,10.43
2018-06-02T08:24:37.632Z,17.02
2018-06-02T08:27:05.130Z,16.12
2018-06-02T08:29:32.632Z,12.77
2018-06-02T08:32:01.519Z,12.70
2018-06-02T08:34:29.080Z,11.82
2018-06-02T08:36:56.590Z,12.27
2018-06-02T08:39:24.167Z,13.60
2018-06-02T08:41:51.681Z,15.27
2018-06-02T08:44:19.181Z,12.63
2018-06-02T08:46:46.654Z,13.62
2018-06-02T08:49:14.163Z,14.07
2018-06-02T08:51:42.403Z,13.52
2018-06-02T08:54:09.895Z,13.77
2018-06-02T08:56:37.379Z,14.02
2018-06-02T08:59:05.026Z,14.38
2018-06-02T09:01:32.591Z,14.20
2018-06-02T09:04:00.088Z,12.27
2018-06-02T09:06:28.813Z,12.48
2018-06-02T09:08:56.385Z,11.93
2018-06-02T09:11:24.647Z,11.45
2018-06-02T09:13:52.157Z,11.82
2018-06-02T09:16:19.650Z,11.55
2018-06-02T09:18:47.140Z,10.77
2018-06-02T09:21:16.336Z,10.32
2018-06-02T09:23:45.566Z,10.13
2018-06-02T09:26:13.052Z,10.90
2018-06-02T09:28:40.587Z,9.13
2018-06-02T09:31:08.912Z,7.82
2018-06-02T09:33:36.415Z,7.47
2018-06-02T09:36:04.356Z,6.97
2018-06-02T09:38:32.612Z,6.32
2018-06-02T09:41:00.285Z,7.37
2018-06-02T09:43:28.547Z,6.75
2018-06-02T09:45:56.028Z,7.37
2018-06-02T09:48:23.534Z,6.93
2018-06-02T09:50:51.010Z,8.80
2018-06-02T09:53:18.514Z,8.57
2018-06-02T09:55:46.074Z,8.82
2018-06-02T09:58:13.572Z,9.43
2018-06-02T10:00:41.074Z,9.80
2018-06-02T10:03:08.608Z,7.97
2018-06-02T10:05:36.091Z,8.10
2018-06-02T10:08:04.362Z,8.13
2018-06-02T10:10:31.872Z,7.65
2018-06-02T10:12:59.420Z,6.85
2018-06-02T10:15:26.925Z,5.45
2018-06-02T10:17:54.435Z,6.30
2018-06-02T10:20:21.934Z,8.40
2018-06-02T10:22:49.446Z,8.98
2018-06-02T10:25:16.941Z,6.55
2018-06-02T10:27:44.438Z,10.00
2018-06-02T10:30:12.698Z,9.93
2018-06-02T10:32:40.178Z,10.45
2018-06-02T10:35:07.718Z,10.48
2018-06-02T10:37:35.196Z,11.20
2018-06-02T10:40:03.510Z,10.43
2018-06-02T10:42:30.988Z,10.80
2018-06-02T10:44:58.532Z,11.40
2018-06-02T10:47:26.007Z,8.70
2018-06-02T10:49:53.625Z,6.90
2018-06-02T10:52:21.099Z,8.00
2018-06-02T10:54:48.608Z,5.70
2018-06-02T10:57:16.086Z,5.03
2018-06-02T10:59:43.616Z,3.92
2018-06-02T11:02:11.109Z,3.70
2018-06-02T11:04:38.571Z,4.53
2018-06-02T11:07:06.090Z,3.92
2018-06-02T11:09:33.569Z,4.15
2018-06-02T11:12:01.838Z,4.93
2018-06-02T11:14:30.199Z,4.03
2018-06-02T11:16:57.752Z,4.07
2018-06-02T11:19:25.220Z,4.50
2018-06-02T11:21:52.767Z,3.30
2018-06-02T11:24:20.288Z,4.10
2018-06-02T11:26:47.837Z,5.18
2018-06-02T11:29:15.330Z,4.25
2018-06-02T11:31:42.833Z,4.15
2018-06-02T11:34:11.628Z,3.97
2018-06-02T11:36:39.117Z,4.00
2018-06-02T11:39:06.614Z,4.05
2018-06-02T11:41:34.126Z,3.58
2018-06-02T11:44:01.683Z,3.90
2018-06-02T11:46:29.191Z,3.87
2018-06-02T11:48:56.703Z,4.15
2018-06-02T11:51:24.234Z,6.10
2018-06-02T11:53:52.537Z,4.93
2018-06-02T11:56:20.018Z,7.50
2018-06-02T11:58:47.536Z,5.82
2018-06-02T12:01:15.020Z,6.20
2018-06-02T12:03:42.558Z,4.80
2018-06-02T12:06:10.041Z,4.30
2018-06-02T12:08:37.558Z,4.30
2018-06-02T12:11:05.816Z,3.83
2018-06-02T12:13:33.340Z,4.18
2018-06-02T12:16:00.817Z,5.35
2018-06-02T12:18:28.336Z,4.95
2018-06-02T12:20:55.818Z,4.25
2018-06-02T12:23:23.334Z,4.50
2018-06-02T12:25:50.821Z,6.47
2018-06-02T12:28:18.390Z,4.65
2018-06-02T12:30:46.613Z,3.83
2018-06-02T12:33:14.131Z,3.85
2018-06-02T12:35:41.625Z,3.75
2018-06-02T12:38:09.160Z,3.60
2018-06-02T12:40:36.644Z,3.70
2018-06-02T12:43:04.905Z,4.05
2018-06-02T12:45:32.416Z,3.90
2018-06-02T12:47:59.887Z,3.37
2018-06-02T12:50:27.848Z,3.15
2018-06-02T12:52:55.327Z,3.03
2018-06-02T12:55:22.835Z,3.40
2018-06-02T12:57:50.322Z,3.12
2018-06-02T13:00:18.743Z,3.90
2018-06-02T13:02:46.228Z,4.20
2018-06-02T13:05:13.731Z,3.72
2018-06-02T13:07:41.219Z,3.65
2018-06-02T13:10:08.715Z,3.28
2018-06-02T13:12:36.214Z,4.05
2018-06-02T13:15:03.716Z,8.32
2018-06-02T13:17:31.964Z,10.07
2018-06-02T13:19:59.671Z,4.40
2018-06-02T13:22:27.171Z,4.10
2018-06-02T13:24:54.671Z,3.55
2018-06-02T13:27:22.935Z,3.10
2018-06-02T13:29:51.211Z,3.55
2018-06-02T13:32:19.509Z,3.58
2018-06-02T13:34:47.015Z,3.92
2018-06-02T13:37:14.910Z,3.00
2018-06-02T13:39:42.393Z,3.08
2018-06-02T13:42:09.913Z,3.75
2018-06-02T13:44:37.399Z,3.33
2018-06-02T13:47:05.688Z,5.55
2018-06-02T13:49:33.205Z,3.85
2018-06-02T13:52:00.730Z,4.37
2018-06-02T13:54:28.212Z,2.97
2018-06-02T13:56:55.733Z,3.08
2018-06-02T13:59:23.756Z,4.28
2018-06-02T14:01:51.286Z,4.05
2018-06-02T14:04:19.532Z,3.25
2018-06-02T14:06:47.036Z,4.47
2018-06-02T14:09:15.312Z,2.35
2018-06-02T14:11:42.880Z,2.83
2018-06-02T14:14:10.404Z,2.60
2018-06-02T14:16:37.894Z,4.05
2018-06-02T14:19:05.393Z,2.67
2018-06-02T14:21:32.861Z,2.78
2018-06-02T14:24:00.366Z,3.45
2018-06-02T14:26:27.868Z,3.87
2018-06-02T14:28:55.375Z,2.72
2018-06-02T14:31:22.860Z,2.95
2018-06-02T14:33:50.386Z,3.22
2018-06-02T14:36:17.885Z,3.45
2018-06-02T14:38:46.169Z,4.25
2018-06-02T14:41:14.418Z,3.40
2018-06-02T14:43:41.976Z,2.58
2018-06-02T14:46:09.448Z,3.30
2018-06-02T14:48:36.979Z,3.00
2018-06-02T14:51:04.459Z,2.90
2018-06-02T14:53:31.956Z,3.15
2018-06-02T14:55:59.457Z,2.67
2018-06-02T14:58:26.937Z,2.67
2018-06-02T15:00:54.426Z,3.05
2018-06-02T15:03:21.890Z,3.20
2018-06-02T15:05:49.404Z,3.12
2018-06-02T15:08:16.887Z,2.55
2018-06-02T15:10:45.175Z,3.42
2018-06-02T15:13:12.661Z,3.53
2018-06-02T15:15:40.163Z,4.07
2018-06-02T15:18:08.213Z,3.62
2018-06-02T15:20:35.737Z,4.30
2018-06-02T15:23:03.215Z,3.65
2018-06-02T15:25:30.739Z,2.83
2018-06-02T15:27:58.209Z,2.92
2018-06-02T15:30:25.731Z,3.37
2018-06-02T15:32:53.973Z,3.70
2018-06-02T15:35:21.463Z,2.95
2018-06-02T15:37:49.739Z,2.90
2018-06-02T15:40:17.997Z,2.80
2018-06-02T15:42:45.519Z,2.95
2018-06-02T15:45:13.004Z,4.28
2018-06-02T15:47:40.506Z,3.35
2018-06-02T15:50:08.010Z,3.12
2018-06-02T15:52:35.518Z,5.97
2018-06-02T15:55:03.765Z,2.55
2018-06-02T15:57:31.261Z,2.95
2018-06-02T15:59:58.740Z,3.00
2018-06-02T16:02:26.271Z,3.00
2018-06-02T16:04:54.517Z,2.45
2018-06-02T16:07:22.812Z,3.42
2018-06-02T16:09:51.057Z,2.78
2018-06-02T16:12:18.564Z,2.15
2018-06-02T16:14:46.081Z,2.30
2018-06-02T16:17:13.570Z,3.25
2018-06-02T16:19:41.822Z,2.28
2018-06-02T16:22:09.306Z,2.80
2018-06-02T16:24:36.809Z,3.30
2018-06-02T16:27:04.293Z,3.90
2018-06-02T16:29:31.803Z,4.32
2018-06-02T16:31:59.281Z,3.00
2018-06-02T16:34:26.799Z,7.37
2018-06-02T16:36:55.041Z,3.35
2018-06-02T16:39:22.544Z,3.85
2018-06-02T16:41:50.032Z,4.62
2018-06-02T16:44:17.589Z,2.78
2018-06-02T16:46:45.064Z,3.83
2018-06-02T16:49:12.582Z,5.65
2018-06-02T16:51:40.079Z,6.15
2018-06-02T16:54:07.600Z,3.45
2018-06-02T16:56:35.083Z,4.80
2018-06-02T16:59:02.563Z,2.55
2018-06-02T17:01:30.066Z,2.70
2018-06-02T17:03:57.569Z,2.65
2018-06-02T17:06:25.101Z,2.65
2018-06-02T17:08:52.578Z,3.80
2018-06-02T17:11:20.084Z,8.57
2018-06-02T17:13:48.335Z,2.97
2018-06-02T17:16:15.828Z,2.97
2018-06-02T17:18:43.340Z,3.72
2018-06-02T17:21:10.878Z,7.40
2018-06-02T17:23:38.363Z,7.62
2018-06-02T17:26:05.865Z,4.28
2018-06-02T17:28:33.349Z,3.45
2018-06-02T17:31:00.859Z,3.30
2018-06-02T17:33:29.125Z,4.53
2018-06-02T17:35:56.668Z,4.07
2018-06-02T17:38:24.157Z,3.30
2018-06-02T17:40:52.417Z,3.08
2018-06-02T17:43:19.919Z,2.60
2018-06-02T17:45:47.409Z,2.80
2018-06-02T17:48:15.671Z,4.25
2018-06-02T17:50:43.145Z,3.83
2018-06-02T17:53:10.644Z,2.62
2018-06-02T17:55:38.871Z,2.92
2018-06-02T17:58:06.365Z,4.20
2018-06-02T18:00:34.619Z,4.72
2018-06-02T18:03:02.117Z,3.08
2018-06-02T18:05:29.606Z,3.08
2018-06-02T18:07:57.090Z,3.97
2018-06-02T18:10:24.552Z,4.60
2018-06-02T18:12:52.067Z,2.90
2018-06-02T18:15:19.553Z,4.60
2018-06-02T18:17:47.059Z,3.10
2018-06-02T18:20:15.320Z,3.65
2018-06-02T18:22:42.880Z,5.45
2018-06-02T18:25:10.354Z,3.62
2018-06-02T18:27:37.901Z,3.33
2018-06-02T18:30:06.155Z,6.20
2018-06-02T18:32:33.626Z,9.80
2018-06-02T18:35:01.232Z,5.55
2018-06-02T18:37:28.713Z,3.85
2018-06-02T18:39:56.226Z,11.12
2018-06-02T18:42:23.709Z,88.37
2018-06-02T18:44:51.223Z,71.75
2018-06-02T18:47:19.495Z,17.60
2018-06-02T18:49:47.032Z,15.07
2018-06-02T18:52:14.545Z,19.10
2018-06-02T18:54:42.037Z,14.70
2018-06-02T18:57:09.549Z,8.02
2018-06-02T18:59:37.810Z,12.10
2018-06-02T19:02:06.064Z,11.75
2018-06-02T19:04:33.593Z,15.80
2018-06-02T19:07:01.078Z,8.07
2018-06-02T19:09:28.601Z,11.93
2018-06-02T19:11:56.083Z,8.60
2018-06-02T19:14:23.553Z,5.30
2018-06-02T19:16:51.063Z,7.20
2018-06-02T19:19:18.656Z,4.37
2018-06-02T19:21:46.169Z,7.03
2018-06-02T19:24:14.406Z,5.73
2018-06-02T19:26:41.911Z,3.90
2018-06-02T19:29:10.169Z,4.77
2018-06-02T19:31:38.429Z,4.13
2018-06-02T19:34:05.977Z,6.23
2018-06-02T19:36:33.477Z,5.30
2018-06-02T19:39:01.729Z,4.90
2018-06-02T19:41:29.276Z,5.60
2018-06-02T19:43:56.767Z,5.40
2018-06-02T19:46:25.031Z,6.30
2018-06-02T19:48:53.346Z,7.73
2018-06-02T19:51:20.824Z,7.43
2018-06-02T19:53:48.304Z,7.80
2018-06-02T19:56:15.793Z,6.90
2018-06-02T19:58:44.067Z,6.70
2018-06-02T20:01:13.814Z,7.27
2018-06-02T20:03:41.331Z,8.07
2018-06-02T20:06:09.564Z,6.93
2018-06-02T20:08:37.836Z,5.77
2018-06-02T20:11:05.327Z,6.10
2018-06-02T20:13:33.767Z,6.40
2018-06-02T20:16:01.252Z,7.33
2018-06-02T20:18:28.759Z,8.43
2018-06-02T20:20:56.249Z,5.97
2018-06-02T20:23:23.772Z,5.10
2018-06-02T20:25:51.248Z,7.87
2018-06-02T20:28:18.769Z,5.00
2018-06-02T20:30:47.003Z,5.60
2018-06-02T20:33:14.471Z,6.40
2018-06-02T20:35:41.984Z,6.07
2018-06-02T20:38:09.463Z,8.07
2018-06-02T20:40:36.973Z,6.70
2018-06-02T20:43:05.219Z,6.23
2018-06-02T20:45:32.711Z,6.77
2018-06-02T20:48:00.960Z,12.97
2018-06-02T20:50:28.477Z,6.40
2018-06-02T20:52:55.964Z,11.23
2018-06-02T20:55:23.478Z,8.30
2018-06-02T20:57:50.966Z,6.53
2018-06-02T21:00:18.476Z,6.33
2018-06-02T21:02:46.730Z,7.00
2018-06-02T21:05:14.817Z,5.67
2018-06-02T21:07:43.061Z,6.23
2018-06-02T21:10:10.583Z,6.37
2018-06-02T21:12:38.066Z,7.83
2018-06-02T21:15:05.577Z,7.27
2018-06-02T21:17:33.801Z,8.43
2018-06-02T21:20:01.309Z,8.53
2018-06-02T21:22:28.807Z,7.23
2018-06-02T21:24:56.299Z,6.53
2018-06-02T21:27:23.785Z,7.93
2018-06-02T21:29:52.054Z,7.13
2018-06-02T21:32:20.322Z,8.37
2018-06-02T21:34:47.803Z,6.13
2018-06-02T21:37:16.071Z,6.47
2018-06-02T21:39:44.337Z,10.27
2018-06-02T21:42:11.838Z,6.43
2018-06-02T21:44:39.316Z,7.23
2018-06-02T21:47:06.817Z,7.00
2018-06-02T21:49:35.079Z,7.10
2018-06-02T21:52:02.597Z,7.60
2018-06-02T21:54:30.103Z,7.17
2018-06-02T21:56:57.569Z,7.53
2018-06-02T21:59:25.861Z,8.50
2018-06-02T22:01:53.340Z,9.43
2018-06-02T22:04:20.855Z,8.57
2018-06-02T22:06:48.336Z,8.57
2018-06-02T22:09:15.889Z,8.37
2018-06-02T22:11:44.134Z,8.33
2018-06-02T22:14:11.655Z,8.40
2018-06-02T22:16:39.132Z,8.83
2018-06-02T22:19:06.637Z,10.93
2018-06-02T22:21:34.880Z,8.03
2018-06-02T22:24:02.381Z,9.30
2018-06-02T22:26:30.610Z,11.40
2018-06-02T22:28:58.134Z,8.83
2018-06-02T22:31:25.633Z,8.67
2018-06-02T22:33:53.110Z,8.33
2018-06-02T22:36:21.420Z,14.13
2018-06-02T22:38:48.916Z,14.63
2018-06-02T22:41:16.434Z,17.80
2018-06-02T22:43:43.907Z,16.67
2018-06-02T22:46:11.423Z,18.60
2018-06-02T22:48:39.681Z,18.13
2018-06-02T22:51:07.185Z,17.33
2018-06-02T22:53:34.683Z,17.87
2018-06-02T22:56:02.195Z,18.07
2018-06-02T22:58:29.687Z,18.73
2018-06-02T23:00:57.201Z,16.27
2018-06-02T23:03:24.672Z,16.47
2018-06-02T23:05:52.184Z,15.70
2018-06-02T23:08:19.688Z,16.93
2018-06-02T23:10:47.189Z,12.97
2018-06-02T23:13:14.664Z,12.77
2018-06-02T23:15:42.181Z,9.40
2018-06-02T23:18:09.653Z,10.20
2018-06-02T23:20:37.127Z,11.60
2018-06-02T23:23:04.635Z,18.00
2018-06-02T23:25:32.107Z,21.10
2018-06-02T23:27:59.615Z,19.90
2018-06-02T23:30:27.111Z,18.73
2018-06-02T23:32:54.614Z,16.50
2018-06-02T23:35:22.120Z,16.33
2018-06-02T23:37:49.644Z,15.43
2018-06-02T23:40:17.144Z,16.17
2018-06-02T23:42:44.612Z,14.87
2018-06-02T23:45:12.120Z,16.30
2018-06-02T23:47:40.032Z,17.07
2018-06-02T23:50:07.574Z,16.53
2018-06-02T23:52:35.808Z,14.97
2018-06-02T23:55:03.324Z,14.63
2018-06-02T23:57:30.807Z,15.70
2018-06-02T23:59:58.310Z,15.50
